createdAt,value
2022-08-19T00:01:38.262Z,18.90
2022-08-19T00:04:08.444Z,18.90
2022-08-19T00:06:36.583Z,18.90
2022-08-19T00:09:04.985Z,18.90
2022-08-19T00:11:31.954Z,18.90
2022-08-19T00:13:58.930Z,18.90
2022-08-19T00:16:27.109Z,18.90
2022-08-19T00:18:57.537Z,18.90
2022-08-19T00:21:26.858Z,18.90
2022-08-19T00:23:55.411Z,18.90
2022-08-19T00:26:22.358Z,18.90
2022-08-19T00:28:49.238Z,18.90
2022-08-19T00:31:16.499Z,18.80
2022-08-19T00:33:43.994Z,18.80
2022-08-19T00:36:11.945Z,18.80
2022-08-19T00:38:42.131Z,18.80
2022-08-19T00:41:09.758Z,18.80
2022-08-19T00:43:36.773Z,18.80
2022-08-19T00:46:05.790Z,18.80
2022-08-19T00:48:34.570Z,18.70
2022-08-19T00:51:02.171Z,18.70
2022-08-19T00:53:31.249Z,18.70
2022-08-19T00:56:02.077Z,18.70
2022-08-19T00:58:31.822Z,18.70
2022-08-19T01:00:58.678Z,18.60
2022-08-19T01:03:25.661Z,18.60
2022-08-19T01:05:54.554Z,18.60
2022-08-19T01:08:22.536Z,18.60
2022-08-19T01:10:52.659Z,18.60
2022-08-19T01:13:22.388Z,18.60
2022-08-19T01:15:59.690Z,18.60
2022-08-19T01:18:27.532Z,18.60
2022-08-19T01:20:58.523Z,18.60
2022-08-19T01:23:43.869Z,18.60
2022-08-19T01:26:16.772Z,18.60
2022-08-19T01:28:45.655Z,18.60
2022-08-19T01:31:26.996Z,18.50
2022-08-19T01:33:57.081Z,18.50
2022-08-19T01:36:32.270Z,18.50
2022-08-19T01:39:00.490Z,18.50
2022-08-19T01:41:27.548Z,18.50
2022-08-19T01:44:09.938Z,18.40
2022-08-19T01:46:42.836Z,18.40
2022-08-19T01:49:10.815Z,18.40
2022-08-19T01:51:38.461Z,18.40
2022-08-19T01:54:09.195Z,18.40
2022-08-19T01:56:36.620Z,18.40
2022-08-19T01:59:09.295Z,18.40
2022-08-19T02:01:36.264Z,18.40
2022-08-19T02:04:03.921Z,18.40
2022-08-19T02:06:30.987Z,18.40
2022-08-19T02:08:58.424Z,18.40
2022-08-19T02:11:28.424Z,18.40
2022-08-19T02:13:55.857Z,18.40
2022-08-19T02:16:23.111Z,18.40
2022-08-19T02:18:51.029Z,18.40
2022-08-19T02:21:19.965Z,18.40
2022-08-19T02:23:47.141Z,18.40
2022-08-19T02:26:14.299Z,18.40
2022-08-19T02:28:43.485Z,18.40
2022-08-19T02:31:17.845Z,18.40
2022-08-19T02:33:45.660Z,18.40
2022-08-19T02:36:13.960Z,18.40
2022-08-19T02:38:43.209Z,18.40
2022-08-19T02:41:33.752Z,18.40
2022-08-19T02:44:29.362Z,18.30
2022-08-19T02:46:51.715Z,18.30
2022-08-19T02:49:20.718Z,18.30
2022-08-19T02:51:48.296Z,18.30
2022-08-19T02:54:20.784Z,18.30
2022-08-19T02:56:47.626Z,18.30
2022-08-19T02:59:14.624Z,18.30
2022-08-19T03:01:43.128Z,18.30
2022-08-19T03:04:12.295Z,18.30
2022-08-19T03:06:40.471Z,18.30
2022-08-19T03:09:07.755Z,18.30
2022-08-19T03:11:35.098Z,18.30
2022-08-19T03:14:02.919Z,18.40
2022-08-19T03:16:33.471Z,18.40
2022-08-19T03:19:01.389Z,18.40
2022-08-19T03:21:33.162Z,18.30
2022-08-19T03:24:05.527Z,18.30
2022-08-19T03:26:32.618Z,18.40
2022-08-19T03:29:05.496Z,18.30
2022-08-19T03:31:44.462Z,18.30
2022-08-19T03:34:22.227Z,18.30
2022-08-19T03:36:49.163Z,18.30
2022-08-19T03:39:16.895Z,18.30
2022-08-19T03:41:48.125Z,18.30
2022-08-19T03:44:19.399Z,18.30
2022-08-19T03:46:48.563Z,18.30
2022-08-19T03:49:15.827Z,18.30
2022-08-19T03:51:46.446Z,18.30
2022-08-19T03:54:14.886Z,18.30
2022-08-19T03:56:43.319Z,18.40
2022-08-19T03:59:14.430Z,18.40
2022-08-19T04:01:41.980Z,18.40
2022-08-19T04:04:09.267Z,18.30
2022-08-19T04:06:39.688Z,18.40
2022-08-19T04:09:10.494Z,18.30
2022-08-19T04:11:47.590Z,18.40
2022-08-19T04:14:17.707Z,18.40
2022-08-19T04:16:45.546Z,18.40
2022-08-19T04:19:13.073Z,18.40
2022-08-19T04:21:40.086Z,18.40
2022-08-19T04:24:07.478Z,18.40
2022-08-19T04:26:36.886Z,18.40
2022-08-19T04:29:12.302Z,18.40
2022-08-19T04:31:41.035Z,18.40
2022-08-19T04:34:11.766Z,18.40
2022-08-19T04:36:41.533Z,18.40
2022-08-19T04:39:11.408Z,18.40
2022-08-19T04:41:56.861Z,18.50
2022-08-19T04:44:23.763Z,18.50
2022-08-19T04:46:51.955Z,18.50
2022-08-19T04:49:23.596Z,18.50
2022-08-19T04:51:52.333Z,18.50
2022-08-19T04:54:38.204Z,18.50
2022-08-19T04:57:09.629Z,18.60
2022-08-19T04:59:39.329Z,18.60
2022-08-19T05:02:09.482Z,18.60
2022-08-19T05:04:40.055Z,18.60
2022-08-19T05:07:08.763Z,18.60
2022-08-19T05:09:56.576Z,18.60
2022-08-19T05:12:22.722Z,18.60
2022-08-19T05:14:57.937Z,18.60
2022-08-19T05:17:27.934Z,18.70
2022-08-19T05:20:14.835Z,18.70
2022-08-19T05:22:44.613Z,18.70
2022-08-19T05:25:14.672Z,18.70
2022-08-19T05:27:42.949Z,18.80
2022-08-19T05:30:11.520Z,18.80
2022-08-19T05:32:40.114Z,18.80
2022-08-19T05:35:07.529Z,18.80
2022-08-19T05:37:34.428Z,18.80
2022-08-19T05:40:01.443Z,18.80
2022-08-19T05:42:28.295Z,18.80
2022-08-19T05:44:55.348Z,18.80
2022-08-19T05:47:22.231Z,18.80
2022-08-19T05:49:50.830Z,18.80
2022-08-19T05:52:18.897Z,18.80
2022-08-19T05:54:51.415Z,18.80
2022-08-19T05:57:20.049Z,18.80
2022-08-19T05:59:49.372Z,18.80
2022-08-19T06:02:20.272Z,18.90
2022-08-19T06:04:47.279Z,18.90
2022-08-19T06:07:14.197Z,18.90
2022-08-19T06:09:43.790Z,18.90
2022-08-19T06:12:33.714Z,18.90
2022-08-19T06:15:02.229Z,19.00
2022-08-19T06:17:31.569Z,19.00
2022-08-19T06:19:59.670Z,19.00
2022-08-19T06:22:27.212Z,19.10
2022-08-19T06:24:54.988Z,19.20
2022-08-19T06:27:22.460Z,19.20
2022-08-19T06:29:49.781Z,19.30
2022-08-19T06:32:18.683Z,19.40
2022-08-19T06:34:45.639Z,19.50
2022-08-19T06:37:13.170Z,19.50
2022-08-19T06:39:44.798Z,19.60
2022-08-19T06:42:14.177Z,19.60
2022-08-19T06:44:48.055Z,19.60
2022-08-19T06:47:23.992Z,19.60
2022-08-19T06:50:03.128Z,19.60
2022-08-19T06:52:47.649Z,19.60
2022-08-19T06:55:19.912Z,19.50
2022-08-19T06:57:47.235Z,19.50
2022-08-19T07:00:15.613Z,19.60
2022-08-19T07:02:48.231Z,19.60
2022-08-19T07:05:20.259Z,19.70
2022-08-19T07:07:51.029Z,19.70
2022-08-19T07:10:18.635Z,19.70
2022-08-19T07:12:51.893Z,19.70
2022-08-19T07:15:22.367Z,19.70
2022-08-19T07:17:54.358Z,19.80
2022-08-19T07:20:22.851Z,19.80
2022-08-19T07:22:58.497Z,19.80
2022-08-19T07:25:32.424Z,19.80
2022-08-19T07:28:08.560Z,19.80
2022-08-19T07:30:51.230Z,19.90
2022-08-19T07:33:22.213Z,19.90
2022-08-19T07:35:50.873Z,19.90
2022-08-19T07:38:17.866Z,19.90
2022-08-19T07:40:47.161Z,20.00
2022-08-19T07:43:20.698Z,20.00
2022-08-19T07:45:50.171Z,20.10
2022-08-19T07:48:17.085Z,20.10
2022-08-19T07:50:44.353Z,20.20
2022-08-19T07:53:12.792Z,20.20
2022-08-19T07:55:40.190Z,20.20
2022-08-19T07:58:12.749Z,20.30
2022-08-19T08:00:39.734Z,20.30
2022-08-19T08:03:12.966Z,20.30
2022-08-19T08:05:58.247Z,20.30
2022-08-19T08:08:52.944Z,20.30
2022-08-19T08:11:26.472Z,20.30
2022-08-19T08:14:00.920Z,20.30
2022-08-19T08:16:34.665Z,20.30
2022-08-19T08:19:01.744Z,20.30
2022-08-19T08:21:31.732Z,20.20
2022-08-19T08:26:34.549Z,20.20
2022-08-19T08:29:02.376Z,20.20
2022-08-19T08:31:40.961Z,20.20
2022-08-19T08:34:08.696Z,20.20
2022-08-19T08:36:43.585Z,20.10
2022-08-19T08:39:10.860Z,20.10
2022-08-19T08:41:56.488Z,20.00
2022-08-19T08:44:41.677Z,20.00
2022-08-19T08:47:18.207Z,20.00
2022-08-19T08:49:54.597Z,20.00
2022-08-19T08:53:06.182Z,20.00
2022-08-19T08:55:42.075Z,19.90
2022-08-19T08:58:42.946Z,19.90
2022-08-19T09:01:19.279Z,19.90
2022-08-19T09:03:54.145Z,19.90
2022-08-19T09:06:49.485Z,19.90
2022-08-19T09:09:41.986Z,19.90
2022-08-19T09:12:18.900Z,19.80
2022-08-19T09:15:03.232Z,19.90
2022-08-19T09:17:36.395Z,19.90
2022-08-19T09:20:09.412Z,19.90
2022-08-19T09:22:38.067Z,19.90
2022-08-19T09:25:07.131Z,19.90
2022-08-19T09:27:42.310Z,19.90
2022-08-19T09:30:23.180Z,19.90
2022-08-19T09:32:53.126Z,19.90
2022-08-19T09:35:25.235Z,19.90
2022-08-19T09:37:57.438Z,19.90
2022-08-19T09:40:35.470Z,19.90
2022-08-19T09:46:08.650Z,20.00
2022-08-19T09:48:36.558Z,20.00
2022-08-19T09:51:11.934Z,20.00
2022-08-19T09:53:39.736Z,20.10
2022-08-19T09:56:12.940Z,20.10
2022-08-19T09:58:40.397Z,20.10
2022-08-19T10:01:08.240Z,20.10
2022-08-19T10:03:36.974Z,20.10
2022-08-19T10:06:05.865Z,20.10
2022-08-19T10:08:49.918Z,20.10
2022-08-19T10:11:28.006Z,20.10
2022-08-19T10:14:06.778Z,20.10
2022-08-19T10:16:33.871Z,20.00
2022-08-19T10:19:06.534Z,20.00
2022-08-19T10:21:35.539Z,20.00
2022-08-19T10:24:05.018Z,20.00
2022-08-19T10:26:38.123Z,20.00
2022-08-19T10:29:06.494Z,20.00
2022-08-19T10:32:00.095Z,20.00
2022-08-19T10:34:27.837Z,20.00
2022-08-19T10:36:56.263Z,20.00
2022-08-19T10:39:30.717Z,19.90
2022-08-19T10:41:58.075Z,19.90
2022-08-19T10:44:32.065Z,19.90
2022-08-19T10:46:59.993Z,19.80
2022-08-19T10:49:28.175Z,19.90
2022-08-19T10:52:20.288Z,19.90
2022-08-19T10:55:18.340Z,19.90
2022-08-19T10:58:01.726Z,20.00
2022-08-19T11:00:30.040Z,20.10
2022-08-19T11:02:56.908Z,20.20
2022-08-19T11:05:24.289Z,20.20
2022-08-19T11:07:52.640Z,20.30
2022-08-19T11:10:25.168Z,20.40
2022-08-19T11:12:55.474Z,20.50
2022-08-19T11:15:22.796Z,20.60
2022-08-19T11:17:49.761Z,20.70
2022-08-19T11:20:16.896Z,20.80
2022-08-19T11:22:43.928Z,20.90
2022-08-19T11:25:12.071Z,20.90
2022-08-19T11:27:42.707Z,20.90
2022-08-19T11:30:13.205Z,20.90
2022-08-19T11:32:47.116Z,20.90
2022-08-19T11:35:15.886Z,20.90
2022-08-19T11:37:42.919Z,20.90
2022-08-19T11:40:10.535Z,20.90
2022-08-19T11:42:56.617Z,20.90
2022-08-19T11:45:25.336Z,20.90
2022-08-19T11:47:52.443Z,20.90
2022-08-19T11:50:19.865Z,20.90
2022-08-19T11:52:47.253Z,20.90
2022-08-19T11:55:14.625Z,20.90
2022-08-19T11:57:44.708Z,20.90
2022-08-19T12:00:13.710Z,20.90
2022-08-19T12:02:41.059Z,20.90
2022-08-19T12:05:12.183Z,20.90
2022-08-19T12:07:40.671Z,20.90
2022-08-19T12:10:07.897Z,20.80
2022-08-19T12:12:35.436Z,20.80
2022-08-19T12:15:02.819Z,20.80
2022-08-19T12:17:29.729Z,20.80
2022-08-19T12:19:56.530Z,20.80
2022-08-19T12:22:23.532Z,20.70
2022-08-19T12:25:01.410Z,20.70
2022-08-19T12:27:35.702Z,20.70
2022-08-19T12:30:11.559Z,20.70
2022-08-19T12:32:40.154Z,20.70
2022-08-19T12:35:09.128Z,20.60
2022-08-19T12:37:36.039Z,20.60
2022-08-19T12:40:04.298Z,20.50
2022-08-19T12:42:31.554Z,20.50
2022-08-19T12:45:03.004Z,20.50
2022-08-19T12:47:32.815Z,20.50
2022-08-19T12:49:59.935Z,20.50
2022-08-19T12:52:38.494Z,20.50
2022-08-19T12:55:07.381Z,20.60
2022-08-19T12:57:36.393Z,20.60
2022-08-19T13:00:14.490Z,20.60
2022-08-19T13:02:45.161Z,20.60
2022-08-19T13:05:15.223Z,20.50
2022-08-19T13:07:45.036Z,20.50
2022-08-19T13:10:14.112Z,20.50
2022-08-19T13:12:42.237Z,20.50
2022-08-19T13:15:11.046Z,20.50
2022-08-19T13:17:39.596Z,20.60
2022-08-19T13:20:09.372Z,20.60
2022-08-19T13:22:37.150Z,20.70
2022-08-19T13:25:06.309Z,20.70
2022-08-19T13:27:33.257Z,20.70
2022-08-19T13:30:19.197Z,20.70
2022-08-19T13:33:04.563Z,20.70
2022-08-19T13:35:31.490Z,20.70
2022-08-19T13:37:58.348Z,20.70
2022-08-19T13:40:27.313Z,20.80
2022-08-19T13:42:55.857Z,20.80
2022-08-19T13:45:25.385Z,20.90
2022-08-19T13:47:59.290Z,21.00
2022-08-19T13:50:32.423Z,21.00
2022-08-19T13:53:00.188Z,21.10
2022-08-19T13:55:28.043Z,21.10
2022-08-19T13:57:59.506Z,21.10
2022-08-19T14:00:27.966Z,21.10
2022-08-19T14:02:56.885Z,21.10
2022-08-19T14:05:27.612Z,21.00
2022-08-19T14:07:54.661Z,21.00
2022-08-19T14:10:22.954Z,20.90
2022-08-19T14:13:15.626Z,20.90
2022-08-19T14:15:43.453Z,20.80
2022-08-19T14:18:10.585Z,20.80
2022-08-19T14:20:38.405Z,20.70
2022-08-19T14:23:06.689Z,20.70
2022-08-19T14:25:34.300Z,20.80
2022-08-19T14:28:01.786Z,20.90
2022-08-19T14:30:33.000Z,20.90
2022-08-19T14:33:03.127Z,20.90
2022-08-19T14:35:31.076Z,21.00
2022-08-19T14:37:58.965Z,21.00
2022-08-19T14:40:28.250Z,21.00
2022-08-19T14:43:05.074Z,21.00
2022-08-19T14:45:40.852Z,20.90
2022-08-19T14:48:18.956Z,20.90
2022-08-19T14:50:46.490Z,20.90
2022-08-19T14:53:13.569Z,20.90
2022-08-19T14:55:44.664Z,20.90
2022-08-19T14:58:29.844Z,20.90
2022-08-19T15:01:01.053Z,20.80
2022-08-19T15:03:29.644Z,20.80
2022-08-19T15:05:58.603Z,20.80
2022-08-19T15:08:27.073Z,20.70
2022-08-19T15:10:54.497Z,20.70
2022-08-19T15:13:22.507Z,20.70
2022-08-19T15:15:49.772Z,20.70
2022-08-19T15:18:17.005Z,20.70
2022-08-19T15:20:46.770Z,20.70
2022-08-19T15:23:15.846Z,20.70
2022-08-19T15:25:43.233Z,20.70
2022-08-19T15:28:13.421Z,20.80
2022-08-19T15:30:41.811Z,20.90
2022-08-19T15:33:08.869Z,20.90
2022-08-19T15:35:35.909Z,21.10
2022-08-19T15:38:03.030Z,21.20
2022-08-19T15:40:30.377Z,21.30
2022-08-19T15:42:58.812Z,21.40
2022-08-19T15:45:32.547Z,21.40
2022-08-19T15:48:03.004Z,21.40
2022-08-19T15:50:31.984Z,21.40
2022-08-19T15:53:06.005Z,21.40
2022-08-19T15:55:36.559Z,21.50
2022-08-19T15:58:29.739Z,21.50
2022-08-19T16:01:20.308Z,21.50
2022-08-19T16:04:15.260Z,21.50
2022-08-19T16:06:50.850Z,21.50
2022-08-19T16:09:23.519Z,21.40
2022-08-19T16:11:56.716Z,21.40
2022-08-19T16:14:25.180Z,21.40
2022-08-19T16:16:52.184Z,21.30
2022-08-19T16:19:20.254Z,21.30
2022-08-19T16:21:49.334Z,21.30
2022-08-19T16:24:17.890Z,21.20
2022-08-19T16:26:45.459Z,21.20
2022-08-19T16:29:13.531Z,21.20
2022-08-19T16:31:43.593Z,21.20
2022-08-19T16:34:11.098Z,21.20
2022-08-19T16:36:41.753Z,21.20
2022-08-19T16:39:10.378Z,21.20
2022-08-19T16:41:37.934Z,21.20
2022-08-19T16:44:06.174Z,21.10
2022-08-19T16:46:33.161Z,21.10
2022-08-19T16:49:00.601Z,21.10
2022-08-19T16:51:28.533Z,21.10
2022-08-19T16:53:55.824Z,21.10
2022-08-19T16:56:22.803Z,21.10
2022-08-19T16:58:50.549Z,21.10
2022-08-19T17:01:18.572Z,21.10
2022-08-19T17:03:48.547Z,21.10
2022-08-19T17:06:20.891Z,21.10
2022-08-19T17:08:52.323Z,21.10
2022-08-19T17:11:24.461Z,21.10
2022-08-19T17:13:52.189Z,21.20
2022-08-19T17:16:22.173Z,21.30
2022-08-19T17:18:52.819Z,21.30
2022-08-19T17:21:23.434Z,21.40
2022-08-19T17:23:50.490Z,21.50
2022-08-19T17:26:18.799Z,21.50
2022-08-19T17:28:52.028Z,21.60
2022-08-19T17:31:21.552Z,21.50
2022-08-19T17:33:49.159Z,21.50
2022-08-19T17:36:23.598Z,21.50
2022-08-19T17:38:57.771Z,21.50
2022-08-19T17:41:25.685Z,21.40
2022-08-19T17:43:53.296Z,21.30
2022-08-19T17:46:20.556Z,21.30
2022-08-19T17:48:52.535Z,21.20
2022-08-19T17:51:24.549Z,21.20
2022-08-19T17:53:53.268Z,21.10
2022-08-19T17:56:20.935Z,21.10
2022-08-19T17:58:57.667Z,21.00
2022-08-19T18:01:39.602Z,20.90
2022-08-19T18:04:17.441Z,20.90
2022-08-19T18:06:46.606Z,20.80
2022-08-19T18:09:24.030Z,20.70
2022-08-19T18:11:53.251Z,20.60
2022-08-19T18:14:32.171Z,20.50
2022-08-19T18:17:09.105Z,20.40
2022-08-19T18:19:42.715Z,20.40
2022-08-19T18:22:33.985Z,20.20
2022-08-19T18:25:03.494Z,20.10
2022-08-19T18:27:30.604Z,20.00
2022-08-19T18:29:59.679Z,20.00
2022-08-19T18:32:34.811Z,19.90
2022-08-19T18:35:03.649Z,19.80
2022-08-19T18:37:30.495Z,19.70
2022-08-19T18:40:15.934Z,19.60
2022-08-19T18:43:03.596Z,19.50
2022-08-19T18:45:51.002Z,19.50
2022-08-19T18:48:36.705Z,19.40
2022-08-19T18:51:04.037Z,19.30
2022-08-19T18:53:33.004Z,19.30
2022-08-19T18:56:00.066Z,19.20
2022-08-19T18:58:34.361Z,19.10
2022-08-19T19:01:11.333Z,19.10
2022-08-19T19:03:47.040Z,19.00
2022-08-19T19:06:18.842Z,19.00
2022-08-19T19:08:50.255Z,18.90
2022-08-19T19:11:26.290Z,18.80
2022-08-19T19:13:53.651Z,18.80
2022-08-19T19:16:24.472Z,18.70
2022-08-19T19:18:52.792Z,18.70
2022-08-19T19:21:22.993Z,18.60
2022-08-19T19:23:50.472Z,18.60
2022-08-19T19:26:17.760Z,18.50
2022-08-19T19:28:45.803Z,18.50
2022-08-19T19:31:17.213Z,18.50
2022-08-19T19:33:44.977Z,18.40
2022-08-19T19:36:13.095Z,18.40
2022-08-19T19:38:47.723Z,18.30
2022-08-19T19:41:21.287Z,18.30
2022-08-19T19:43:56.685Z,18.20
2022-08-19T19:46:36.168Z,18.30
2022-08-19T19:49:03.613Z,18.30
2022-08-19T19:51:30.573Z,18.30
2022-08-19T19:54:04.787Z,18.20
2022-08-19T19:56:31.639Z,18.20
2022-08-19T19:58:58.498Z,18.20
2022-08-19T20:01:27.184Z,18.10
2022-08-19T20:03:54.838Z,18.10
2022-08-19T20:06:21.727Z,18.20
2022-08-19T20:09:07.254Z,18.20
2022-08-19T20:11:44.894Z,18.10
2022-08-19T20:14:17.340Z,18.20
2022-08-19T20:16:46.218Z,18.10
2022-08-19T20:19:15.596Z,18.10
2022-08-19T20:21:46.018Z,18.00
2022-08-19T20:24:22.478Z,18.00
2022-08-19T20:26:53.369Z,17.90
2022-08-19T20:29:38.041Z,17.90
2022-08-19T20:32:06.549Z,17.90
2022-08-19T20:34:34.278Z,17.80
2022-08-19T20:37:01.226Z,17.70
2022-08-19T20:39:30.167Z,17.70
2022-08-19T20:41:57.081Z,17.70
2022-08-19T20:44:25.543Z,17.60
2022-08-19T20:46:54.842Z,17.60
2022-08-19T20:49:23.076Z,17.60
2022-08-19T20:51:55.844Z,17.60
2022-08-19T20:54:29.797Z,17.60
2022-08-19T20:56:59.837Z,17.50
2022-08-19T20:59:30.306Z,17.50
2022-08-19T21:02:03.394Z,17.40
2022-08-19T21:04:30.572Z,17.40
2022-08-19T21:06:58.180Z,17.40
2022-08-19T21:09:25.215Z,17.40
2022-08-19T21:11:53.492Z,17.30
2022-08-19T21:14:20.899Z,17.30
2022-08-19T21:16:50.809Z,17.30
2022-08-19T21:19:23.679Z,17.30
2022-08-19T21:21:51.173Z,17.30
2022-08-19T21:24:29.978Z,17.30
2022-08-19T21:27:03.226Z,17.30
2022-08-19T21:29:39.391Z,17.30
2022-08-19T21:32:14.146Z,17.20
2022-08-19T21:34:42.790Z,17.20
2022-08-19T21:37:24.681Z,17.10
2022-08-19T21:39:56.394Z,17.10
2022-08-19T21:42:23.964Z,17.10
2022-08-19T21:44:50.934Z,17.10
2022-08-19T21:47:17.874Z,17.10
2022-08-19T21:49:44.991Z,17.10
2022-08-19T21:52:13.264Z,17.10
2022-08-19T21:54:42.123Z,17.00
2022-08-19T21:57:10.457Z,17.00
2022-08-19T21:59:43.752Z,17.00
2022-08-19T22:02:20.865Z,17.00
2022-08-19T22:04:49.368Z,17.00
2022-08-19T22:07:16.315Z,17.00
2022-08-19T22:09:45.497Z,16.90
2022-08-19T22:12:28.041Z,16.90
2022-08-19T22:14:55.349Z,16.90
2022-08-19T22:17:22.934Z,16.90
2022-08-19T22:19:50.954Z,16.80
2022-08-19T22:22:27.121Z,16.80
2022-08-19T22:25:31.208Z,16.80
2022-08-19T22:28:03.683Z,16.70
2022-08-19T22:30:33.249Z,16.70
2022-08-19T22:33:04.136Z,16.70
2022-08-19T22:35:35.867Z,16.70
2022-08-19T22:38:06.327Z,16.70
2022-08-19T22:40:36.256Z,16.70
2022-08-19T22:43:10.621Z,16.60
2022-08-19T22:45:38.749Z,16.60
2022-08-19T22:48:10.472Z,16.60
2022-08-19T22:50:38.860Z,16.60
2022-08-19T22:53:09.424Z,16.50
2022-08-19T22:55:37.872Z,16.50
2022-08-19T22:58:05.457Z,16.50
2022-08-19T23:00:33.166Z,16.50
2022-08-19T23:03:17.625Z,16.50
2022-08-19T23:05:45.396Z,16.50
2022-08-19T23:08:13.762Z,16.40
2022-08-19T23:10:40.750Z,16.40
2022-08-19T23:13:08.075Z,16.40
2022-08-19T23:15:35.235Z,16.30
2022-08-19T23:18:04.368Z,16.30
2022-08-19T23:20:34.535Z,16.30
2022-08-19T23:23:12.856Z,16.30
2022-08-19T23:25:39.798Z,16.20
2022-08-19T23:28:25.331Z,16.20
2022-08-19T23:30:53.115Z,16.10
2022-08-19T23:33:24.991Z,16.10
2022-08-19T23:35:58.506Z,16.10
2022-08-19T23:38:26.508Z,16.10
2022-08-19T23:40:55.537Z,16.10
2022-08-19T23:43:24.983Z,16.00
2022-08-19T23:45:53.772Z,16.00
2022-08-19T23:48:26.071Z,16.00
2022-08-19T23:50:57.099Z,16.00
2022-08-19T23:53:24.925Z,15.90
2022-08-19T23:55:52.485Z,15.90
2022-08-19T23:58:20.607Z,16.00
